»·PEaware :: UPS958 KBFI-KPDX

UPS958 :: KBFI-KPDX

FLIGHT INFORMATION

Flight Status: Arrived
Operator:
United Parcel Service
More flights by this operator :: More flights under this callsign
Pilot: Andrew C. (28419)
Aircraft: BOEING 757-200
(B752)
More flights by this aircraft type
Origin: KBFI Boeing Field/King Co Intl
United States
Destination: KPDX Portland Intl
United States
More flights between these airports :: More routes between these airports
Route: +NEEDLE1 BUWZO KRATR2
File this flight plan on PilotEdge
Remarks: RMK / SIMBRIEF
Altitude:
(Current/Filed)
19,000ft
Speed:
(Current/Filed)
399kts
Departed: 20-Jul-20 04:50 PM
Arrived: 20-Jul-20 05:25 PM
Distance/Time
Traveled:
117nm/0:34
Distance/Time
To Go:
Arrived

Flight Plot

Page will automatically refresh every two minutes.


Map Options




Map Legend


Flown Route
Filed Route
Departure Airport
Arrival Airport
Navaid (VOR, NDB)
Fix

Horizontal Profiles

Position Reports

Time Latitude Longitude Heading Altitude Ground
Speed
20-Jul-20 16:19 47.535695 -122.303190 50 30ft 0kts
20-Jul-20 16:20 47.535695 -122.303190 50 30ft 0kts
20-Jul-20 16:21 47.535695 -122.303190 50 30ft 0kts
20-Jul-20 16:22 47.535695 -122.303190 50 29ft 0kts
20-Jul-20 16:23 47.535695 -122.303190 50 29ft 0kts
20-Jul-20 16:24 47.535695 -122.303190 50 29ft 0kts
20-Jul-20 16:25 47.535695 -122.303190 50 29ft 0kts
20-Jul-20 16:26 47.535695 -122.303190 50 29ft 0kts
20-Jul-20 16:27 47.535695 -122.303190 50 29ft 0kts
20-Jul-20 16:28 47.535695 -122.303190 50 29ft 0kts
20-Jul-20 16:29 47.535695 -122.303190 50 29ft 0kts
20-Jul-20 16:31 47.535695 -122.303190 50 29ft 0kts
20-Jul-20 16:32 47.535695 -122.303190 50 29ft 0kts
20-Jul-20 16:33 47.535695 -122.303190 50 29ft 0kts
20-Jul-20 16:34 47.535695 -122.303190 50 29ft 0kts
20-Jul-20 16:35 47.535695 -122.303190 50 29ft 0kts
20-Jul-20 16:36 47.535695 -122.303191 50 29ft 0kts
20-Jul-20 16:37 47.535695 -122.303191 50 29ft 0kts
20-Jul-20 16:38 47.535695 -122.303191 50 29ft 0kts
20-Jul-20 16:39 47.535695 -122.303191 50 29ft 0kts
20-Jul-20 16:40 47.535554 -122.303813 95 29ft 2kts
20-Jul-20 16:41 47.535791 -122.304459 143 29ft 0kts
20-Jul-20 16:42 47.535790 -122.304458 143 29ft 0kts
20-Jul-20 16:43 47.535310 -122.303961 149 29ft 7kts
20-Jul-20 16:44 47.531743 -122.300977 150 29ft 16kts
20-Jul-20 16:45 47.527969 -122.298430 192 29ft 13kts
20-Jul-20 16:45 47.525785 -122.297337 151 29ft 8kts
20-Jul-20 16:47 47.521576 -122.293735 150 29ft 18kts
20-Jul-20 16:48 47.519748 -122.292216 161 29ft 0kts
20-Jul-20 16:48 47.518962 -122.292859 249 29ft 4kts
20-Jul-20 16:50 47.539131 -122.310100 329 257ft 181kts
20-Jul-20 16:51 47.582407 -122.346336 330 1664ft 199kts
20-Jul-20 16:51 47.626920 -122.383583 330 2096ft 220kts
20-Jul-20 16:52 47.683510 -122.431079 324 3095ft 258kts
20-Jul-20 16:53 47.680811 -122.520079 207 6272ft 265kts
20-Jul-20 16:54 47.610209 -122.512901 163 9356ft 271kts
20-Jul-20 16:55 47.527786 -122.483831 168 10534ft 354kts
20-Jul-20 16:56 47.426774 -122.452721 169 13211ft 383kts
20-Jul-20 16:57 47.319087 -122.419998 169 15863ft 406kts
20-Jul-20 16:58 47.205178 -122.385531 169 18416ft 426kts
20-Jul-20 16:59 47.086412 -122.349764 169 19038ft 438kts
20-Jul-20 17:00 46.966790 -122.314156 172 19037ft 437kts
20-Jul-20 17:01 46.851589 -122.309685 181 18510ft 405kts
20-Jul-20 17:02 46.739346 -122.309564 181 16993ft 396kts
20-Jul-20 17:03 46.630581 -122.309559 181 15594ft 386kts
20-Jul-20 17:04 46.524470 -122.309559 181 14290ft 376kts
20-Jul-20 17:05 46.421160 -122.309557 181 13046ft 368kts
20-Jul-20 17:06 46.320079 -122.309556 180 11841ft 360kts
20-Jul-20 17:07 46.223442 -122.328768 201 10736ft 350kts
20-Jul-20 17:08 46.136657 -122.376737 201 10302ft 301kts
20-Jul-20 17:09 46.062201 -122.417677 199 9501ft 282kts
20-Jul-20 17:10 45.989915 -122.456626 199 8257ft 275kts
20-Jul-20 17:11 45.918153 -122.483088 170 7097ft 269kts
20-Jul-20 17:12 45.843805 -122.460509 169 6171ft 272kts
20-Jul-20 17:13 45.770013 -122.437188 169 6017ft 271kts
20-Jul-20 17:14 45.696478 -122.413914 169 6017ft 271kts
20-Jul-20 17:15 45.623114 -122.387905 150 6024ft 273kts
20-Jul-20 17:16 45.575875 -122.304349 126 6007ft 255kts
20-Jul-20 17:17 45.530356 -122.243196 186 5507ft 223kts
20-Jul-20 17:18 45.486395 -122.291843 263 4570ft 212kts
20-Jul-20 17:19 45.497748 -122.376322 303 3452ft 219kts
20-Jul-20 17:20 45.528607 -122.452652 299 2097ft 183kts
20-Jul-20 17:21 45.550150 -122.505834 302 1270ft 150kts
20-Jul-20 17:22 45.569597 -122.556039 300 482ft 142kts
20-Jul-20 17:23 45.586348 -122.598859 299 33ft 57kts
20-Jul-20 17:24 45.586672 -122.608559 223 33ft 16kts
20-Jul-20 17:25 45.584840 -122.609482 227 32ft 10kts
20-Jul-20 17:26 45.584095 -122.608882 135 32ft 0kts
20-Jul-20 17:27 45.584147 -122.608958 135 32ft 0kts

Navigation Log

Ident Type
Flight plan parsing failed, navigation log unavailable